createdAt,value
2022-09-15T00:04:27.861Z,22.26
2022-09-15T00:09:30.508Z,21.58
2022-09-15T00:14:33.205Z,22.36
2022-09-15T00:19:36.559Z,22.25
2022-09-15T00:24:39.604Z,22.19
2022-09-15T00:29:42.255Z,21.85
2022-09-15T00:34:45.305Z,21.60
2022-09-15T00:39:48.264Z,22.06
2022-09-15T00:44:57.265Z,21.93
2022-09-15T00:50:06.172Z,21.95
2022-09-15T00:55:43.817Z,22.22
2022-09-15T01:00:56.191Z,22.24
2022-09-15T01:06:13.850Z,21.87
2022-09-15T01:11:17.887Z,22.15
2022-09-15T01:16:29.719Z,22.14
2022-09-15T01:21:58.854Z,21.91
2022-09-15T01:27:41.532Z,22.06
2022-09-15T01:33:05.778Z,22.08
2022-09-15T01:38:21.834Z,22.07
2022-09-15T01:43:27.005Z,22.00
2022-09-15T01:48:31.125Z,21.83
2022-09-15T01:53:34.851Z,21.72
2022-09-15T01:58:41.041Z,21.77
2022-09-15T02:04:03.221Z,21.15
2022-09-15T02:09:29.379Z,21.21
2022-09-15T02:14:44.434Z,21.67
2022-09-15T02:19:55.289Z,21.61
2022-09-15T02:25:03.797Z,21.53
2022-09-15T02:30:12.525Z,21.53
2022-09-15T02:35:16.759Z,21.48
2022-09-15T02:40:20.153Z,20.90
2022-09-15T02:45:23.918Z,20.76
2022-09-15T02:50:27.561Z,21.56
2022-09-15T02:55:30.326Z,21.47
2022-09-15T03:00:33.354Z,20.79
2022-09-15T03:05:36.137Z,21.50
2022-09-15T03:10:38.790Z,21.43
2022-09-15T03:15:41.457Z,21.54
2022-09-15T03:20:44.510Z,20.51
2022-09-15T03:25:47.342Z,20.48
2022-09-15T03:30:50.152Z,20.92
2022-09-15T03:35:54.272Z,21.28
2022-09-15T03:41:15.196Z,21.40
2022-09-15T03:46:18.823Z,21.43
2022-09-15T03:51:22.850Z,21.26
2022-09-15T03:56:32.206Z,21.48
2022-09-15T04:01:35.742Z,21.55
2022-09-15T04:06:39.329Z,21.66
2022-09-15T04:11:41.991Z,20.60
2022-09-15T04:16:44.758Z,21.36
2022-09-15T04:21:48.356Z,21.55
2022-09-15T04:26:51.091Z,20.59
2022-09-15T04:31:54.591Z,20.95
2022-09-15T04:36:57.781Z,21.61
2022-09-15T04:42:00.728Z,21.55
2022-09-15T04:47:03.531Z,21.60
2022-09-15T04:52:09.646Z,21.13
2022-09-15T04:57:12.936Z,21.16
2022-09-15T05:02:15.873Z,21.43
2022-09-15T05:07:20.159Z,21.91
2022-09-15T05:12:22.904Z,21.91
2022-09-15T05:17:26.829Z,21.22
2022-09-15T05:22:29.669Z,21.71
2022-09-15T05:27:34.592Z,21.06
2022-09-15T05:32:37.252Z,20.89
2022-09-15T05:37:40.061Z,21.89
2022-09-15T05:42:42.701Z,21.69
2022-09-15T05:47:45.424Z,21.58
2022-09-15T05:52:52.070Z,21.89
2022-09-15T05:58:02.680Z,21.98
2022-09-15T06:03:05.472Z,21.44
2022-09-15T06:08:08.307Z,21.16
2022-09-15T06:13:11.210Z,22.01
2022-09-15T06:18:14.609Z,22.14
2022-09-15T06:23:17.244Z,21.44
2022-09-15T06:28:20.375Z,22.13
2022-09-15T06:33:23.050Z,21.40
2022-09-15T06:38:25.705Z,21.50
2022-09-15T06:43:28.434Z,21.56
2022-09-15T06:48:33.322Z,21.42
2022-09-15T06:53:37.620Z,21.98
2022-09-15T06:58:42.193Z,22.79
2022-09-15T07:03:45.677Z,22.73
2022-09-15T07:08:51.281Z,23.11
2022-09-15T07:13:55.529Z,23.01
2022-09-15T07:19:01.434Z,22.41
2022-09-15T07:24:07.366Z,22.82
2022-09-15T07:29:10.926Z,22.77
2022-09-15T07:34:13.599Z,21.48
2022-09-15T07:39:16.236Z,22.72
2022-09-15T07:44:18.863Z,22.62
2022-09-15T07:49:21.481Z,23.11
2022-09-15T07:54:24.512Z,22.61
2022-09-15T07:59:28.502Z,23.03
2022-09-15T08:04:32.408Z,22.92
2022-09-15T08:09:35.130Z,22.37
2022-09-15T08:14:37.811Z,22.62
2022-09-15T08:19:40.668Z,22.65
2022-09-15T08:24:43.326Z,22.30
2022-09-15T08:29:45.955Z,22.07
2022-09-15T08:34:48.876Z,22.19
2022-09-15T08:39:52.836Z,21.94
2022-09-15T08:45:03.254Z,21.17
2022-09-15T08:50:24.539Z,20.53
2022-09-15T08:55:27.147Z,20.26
2022-09-15T09:00:30.893Z,18.99
2022-09-15T09:05:46.687Z,18.78
2022-09-15T09:11:12.863Z,17.19
2022-09-15T09:16:51.864Z,15.68
2022-09-15T09:22:03.644Z,16.87
2022-09-15T09:27:10.966Z,16.85
2022-09-15T09:32:34.870Z,17.47
2022-09-15T09:37:37.698Z,18.22
2022-09-15T09:42:41.528Z,17.93
2022-09-15T09:47:44.279Z,17.71
2022-09-15T09:52:46.898Z,17.78
2022-09-15T09:57:50.809Z,17.66
2022-09-15T10:03:10.765Z,17.69
2022-09-15T10:08:21.436Z,16.72
2022-09-15T10:13:24.300Z,16.75
2022-09-15T10:18:38.976Z,17.37
2022-09-15T10:23:41.881Z,17.93
2022-09-15T10:28:46.030Z,19.20
2022-09-15T10:33:48.795Z,19.64
2022-09-15T10:39:19.824Z,20.10
2022-09-15T10:44:42.777Z,20.00
2022-09-15T10:50:08.096Z,20.41
2022-09-15T10:55:51.532Z,20.98
2022-09-15T11:01:30.719Z,21.44
2022-09-15T11:06:42.926Z,21.99
2022-09-15T11:12:14.818Z,22.13
2022-09-15T11:17:22.377Z,22.76
2022-09-15T11:22:32.552Z,23.14
2022-09-15T11:28:08.417Z,23.31
2022-09-15T11:33:17.510Z,23.49
2022-09-15T11:38:51.053Z,23.38
2022-09-15T11:44:02.522Z,23.52
2022-09-15T11:49:17.933Z,23.16
2022-09-15T11:54:35.433Z,23.24
2022-09-15T12:00:00.162Z,23.41
2022-09-15T12:05:21.788Z,23.30
2022-09-15T12:10:32.938Z,23.38
2022-09-15T12:15:36.095Z,23.45
2022-09-15T12:20:49.573Z,23.32
2022-09-15T12:26:15.030Z,23.58
2022-09-15T12:31:35.340Z,23.41
2022-09-15T12:36:45.385Z,23.68
2022-09-15T12:41:50.794Z,23.28
2022-09-15T12:46:56.786Z,23.81
2022-09-15T12:52:01.270Z,23.39
2022-09-15T12:57:04.445Z,24.11
2022-09-15T13:02:48.828Z,23.89
2022-09-15T13:07:55.843Z,23.80
2022-09-15T13:13:35.781Z,24.09
2022-09-15T13:18:44.364Z,24.12
2022-09-15T13:23:51.598Z,24.14
2022-09-15T13:28:56.452Z,23.84
2022-09-15T13:40:13.808Z,24.14
2022-09-15T13:45:38.628Z,24.31
2022-09-15T13:50:45.429Z,23.79
2022-09-15T13:55:49.397Z,23.67
2022-09-15T14:00:52.822Z,24.33
2022-09-15T14:05:57.604Z,24.26
2022-09-15T14:11:09.350Z,24.11
2022-09-15T14:16:27.348Z,24.22
2022-09-15T14:21:35.389Z,23.57
2022-09-15T14:26:39.000Z,23.45
2022-09-15T14:31:42.114Z,23.70
2022-09-15T14:36:45.033Z,23.22
2022-09-15T14:41:49.598Z,24.07
2022-09-15T14:46:53.387Z,23.41
2022-09-15T14:51:56.155Z,23.13
2022-09-15T14:57:02.318Z,22.85
2022-09-15T15:02:39.349Z,23.78
2022-09-15T15:07:43.987Z,22.88
2022-09-15T15:12:51.775Z,23.61
2022-09-15T15:17:58.078Z,23.80
2022-09-15T15:23:24.803Z,23.59
2022-09-15T15:28:38.265Z,23.66
2022-09-15T15:34:00.116Z,23.54
2022-09-15T15:39:06.538Z,23.37
2022-09-15T15:44:15.387Z,23.29
2022-09-15T15:49:19.407Z,23.10
2022-09-15T15:54:22.732Z,23.21
2022-09-15T15:59:25.386Z,23.29
2022-09-15T16:04:29.586Z,23.30
2022-09-15T16:09:33.342Z,23.33
2022-09-15T16:14:36.585Z,23.28
2022-09-15T16:19:39.269Z,22.98
2022-09-15T16:24:42.081Z,22.25
2022-09-15T16:29:46.383Z,22.99
2022-09-15T16:34:52.007Z,23.09
2022-09-15T16:39:55.606Z,22.80
2022-09-15T16:44:59.492Z,23.09
2022-09-15T16:50:02.430Z,22.13
2022-09-15T16:55:21.464Z,22.88
2022-09-15T17:00:24.662Z,22.33
2022-09-15T17:05:48.281Z,23.10
2022-09-15T17:10:51.707Z,22.48
2022-09-15T17:15:55.006Z,22.66
2022-09-15T17:20:58.098Z,22.79
2022-09-15T17:26:03.697Z,22.58
2022-09-15T17:31:13.961Z,22.47
2022-09-15T17:36:17.508Z,22.41
2022-09-15T17:41:22.349Z,22.02
2022-09-15T17:46:25.220Z,22.16
2022-09-15T17:51:27.911Z,21.85
2022-09-15T17:56:30.591Z,21.18
2022-09-15T18:01:33.707Z,20.88
2022-09-15T18:06:40.229Z,21.56
2022-09-15T18:11:45.108Z,21.85
2022-09-15T18:16:48.850Z,21.81
2022-09-15T18:21:54.286Z,21.57
2022-09-15T18:26:56.994Z,21.67
2022-09-15T18:32:00.154Z,21.57
2022-09-15T18:37:03.422Z,21.78
2022-09-15T18:42:06.965Z,21.10
2022-09-15T18:47:09.570Z,21.20
2022-09-15T18:52:14.149Z,21.25
2022-09-15T18:57:20.071Z,21.45
2022-09-15T19:02:23.007Z,21.37
2022-09-15T19:07:28.398Z,21.40
2022-09-15T19:12:32.494Z,21.33
2022-09-15T19:17:35.464Z,21.20
2022-09-15T19:22:38.498Z,21.01
2022-09-15T19:27:42.589Z,21.07
2022-09-15T19:32:46.505Z,20.60
2022-09-15T19:37:49.636Z,20.85
2022-09-15T19:42:52.362Z,20.89
2022-09-15T19:47:55.341Z,20.80
2022-09-15T19:52:59.702Z,20.63
2022-09-15T19:58:02.777Z,20.55
2022-09-15T20:03:05.501Z,20.67
2022-09-15T20:08:08.120Z,20.62
2022-09-15T20:13:11.021Z,20.71
2022-09-15T20:18:14.221Z,20.04
2022-09-15T20:23:17.318Z,21.00
2022-09-15T20:28:21.826Z,20.86
2022-09-15T20:33:27.191Z,21.14
2022-09-15T20:38:32.530Z,20.85
2022-09-15T20:43:38.486Z,21.22
2022-09-15T20:48:42.462Z,21.15
2022-09-15T20:53:46.952Z,21.22
2022-09-15T20:58:50.832Z,20.81
2022-09-15T21:03:56.693Z,21.19
2022-09-15T21:09:00.372Z,20.93
2022-09-15T21:14:04.113Z,20.82
2022-09-15T21:19:09.893Z,20.77
2022-09-15T21:24:13.303Z,20.62
2022-09-15T21:29:17.226Z,20.58
2022-09-15T21:34:21.026Z,19.58
2022-09-15T21:39:24.526Z,20.16
2022-09-15T21:44:28.146Z,20.11
2022-09-15T21:49:32.174Z,19.83
2022-09-15T21:54:47.456Z,19.76
2022-09-15T21:59:50.931Z,19.91
2022-09-15T22:04:55.527Z,19.70
2022-09-15T22:09:58.929Z,19.47
2022-09-15T22:15:02.777Z,19.92
2022-09-15T22:20:10.095Z,19.98
2022-09-15T22:25:15.056Z,20.10
2022-09-15T22:30:20.081Z,19.16
2022-09-15T22:35:25.988Z,19.76
2022-09-15T22:40:30.267Z,20.13
2022-09-15T22:45:33.847Z,20.13
2022-09-15T22:50:37.365Z,20.11
2022-09-15T22:55:40.984Z,19.65
2022-09-15T23:00:45.931Z,19.66
2022-09-15T23:05:57.798Z,19.30
2022-09-15T23:11:13.105Z,19.34
2022-09-15T23:16:17.852Z,19.07
2022-09-15T23:21:22.551Z,19.12
2022-09-15T23:26:27.864Z,19.13
2022-09-15T23:31:35.824Z,19.65
2022-09-15T23:36:39.300Z,19.97
2022-09-15T23:41:47.718Z,19.24
2022-09-15T23:46:51.320Z,19.85
2022-09-15T23:51:54.784Z,19.97
2022-09-15T23:56:58.229Z,19.57
